METAR Reports

Area Airport Weather Conditions

KBDL - Windsor Locks, Connecticut, USA
Distance from station: NE 45mi, 72km
Updated: 3:51AM EST, December 02, 2021
Light rain, Overcast
Light rain, Overcast
 Wind from calm
Wind: Calm
Temperature: 34°F , 1°C
Dew Point: 30°F , -1°C
Humidity: 87%
Barometer: 29.97 inHg , 1014.9 hPa
Summary: Light rain
Clouds: Overcast
Visibility: 10 miles , 16 km
Cloud details: Mostly cloudy 3200 ft
Mostly cloudy 4500 ft
Overcast 6000 ft
2021/12/02 08:51 KBDL 020851Z 00000KT 10SM -RA BKN032 BKN045 OVC060 01/M01 A2997 RMK AO2 SLP150 P0000 60000 T00111006 58030
KDXR - Danbury, Connecticut, USA
Distance from station: SSW 15mi, 24km
Updated: 3:53AM EST, December 02, 2021
Light rain, Mist, Overcast
Light rain, Mist, Overcast
 Wind from SE
Wind: SE 7 mph , 11 km/h
Temperature: 41°F , 5°C
Wind Chill: 36°F , 2°C
Dew Point: 37°F , 3°C
Humidity: 87%
Barometer: 29.95 inHg , 1014.2 hPa
Summary: Light rain, Mist
Clouds: Overcast
Visibility: 6 miles , 10 km
Cloud details: Few Clouds 3200 ft
Mostly cloudy 4400 ft
Overcast 5500 ft
2021/12/02 08:53 KDXR 020853Z AUTO 14006KT 6SM -RA BR FEW032 BKN044 OVC055 05/03 A2995 RMK AO2 SLP145 P0001 60003 T00500028 58034
 
KOXC - Oxford/Waterbury, Connecticut, USA
Distance from station: ESE 16mi, 26km
Updated: 3:51AM EST, December 02, 2021
Light rain, Mist, Overcast
Light rain, Mist, Overcast
 Wind from SE
Wind: SE 7 mph , 11 km/h
Temperature: 39°F , 4°C
Wind Chill: 34°F , 1°C
Dew Point: 39°F , 4°C
Humidity: 100%
Barometer: 29.94 inHg , 1013.9 hPa
Summary: Light rain, Mist
Clouds: Overcast
Visibility: 5 miles , 8 km
Cloud details: Mostly cloudy 4600 ft
Overcast 5500 ft
2021/12/02 08:51 KOXC 020851Z AUTO 14006KT 5SM -RA BR BKN046 OVC055 04/04 A2994 RMK AO2 SLP156 P0002 60002 T00440044 58035
KPOU - Poughkeepsie, New York, USA
Distance from station: W 25mi, 40km
Updated: 3:53AM EST, December 02, 2021
Mist, Overcast
Mist, Overcast
 Wind from ESE
Wind: ESE 3 mph , 6 km/h
Temperature: 39°F , 4°C
Dew Point: 37°F , 3°C
Humidity: 93%
Barometer: 29.91 inHg , 1012.9 hPa
Summary: Mist
Clouds: Overcast
Visibility: 4 miles , 6 km
Cloud details: Overcast 4900 ft
2021/12/02 08:53 KPOU 020853Z AUTO 12003KT 4SM BR OVC049 04/03 A2991 RMK AO2 RAE47 SLP127 P0004 60011 T00390028 58039
 
KMMK - Meriden, Connecticut, USA
Distance from station: E 30mi, 48km
Updated: 3:53AM EST, December 02, 2021
Overcast
Overcast
 Wind from NW
Wind: NW 3 mph , 6 km/h
Temperature: 36°F , 2°C
Dew Point: 34°F , 1°C
Humidity: 93%
Barometer: 29.96 inHg , 1014.6 hPa
Clouds: Overcast
Visibility: 9 miles , 14 km
Cloud details: Overcast 5000 ft
2021/12/02 08:53 KMMK 020853Z AUTO 32003KT 9SM UP OVC050 02/01 A2996 RMK AO2 UPB12E14B48RAB14E48 SLP146 P0003 60003 T00220006 58035
KBDR - Bridgeport, Connecticut, USA
Distance from station: SSE 32mi, 51km
Updated: 3:52AM EST, December 02, 2021
Overcast
Overcast
 Wind from S
Wind: S 9 mph , 15 km/h
Temperature: 46°F , 8°C
Wind Chill: 41°F , 5°C
Dew Point: 43°F , 6°C
Humidity: 87%
Barometer: 29.98 inHg , 1015.2 hPa
Clouds: Overcast
Visibility: 10 miles , 16 km
Cloud details: Partly cloudy 3200 ft
Overcast 7500 ft
2021/12/02 08:52 KBDR 020852Z AUTO 17008KT 10SM SCT032 OVC075 08/06 A2998 RMK AO2 RAE28 SLP150 P0000 60002 T00830061 58030
 
KHVN - New Haven/Tweed, Connecticut, USA
Distance from station: SE 35mi, 57km
Updated: 3:53AM EST, December 02, 2021
Overcast
Overcast
 Wind from S
Wind: S 8 mph , 13 km/h
Temperature: 48°F , 9°C
Wind Chill: 44°F , 7°C
Dew Point: 45°F , 7°C
Humidity: 87%
Barometer: 29.97 inHg , 1014.9 hPa
Clouds: Overcast
Visibility: 8 miles , 13 km
Cloud details: Overcast 7000 ft
2021/12/02 08:53 KHVN 020853Z AUTO 18007KT 8SM OVC070 09/07 A2997 RMK AO2 RAB01E38 SLP147 P0001 60002 T00890067 58034
KSWF - Newburgh/Stewart, New York, USA
Distance from station: W 35mi, 57km
Updated: 3:45AM EST, December 02, 2021
Light rain, Mist, Overcast
Light rain, Mist, Overcast
 Wind from S
Wind: S 7 mph , 11 km/h
Temperature: 41°F , 5°C
Wind Chill: 36°F , 2°C
Dew Point: 39°F , 4°C
Humidity: 93%
Barometer: 29.90 inHg , 1012.5 hPa
Summary: Light rain, Mist
Clouds: Overcast
Visibility: 7 miles , 11 km
Cloud details: Overcast 2000 ft
2021/12/02 08:45 KSWF 020845Z 18006KT 7SM -RA BR OVC020 05/04 A2990
 
KHPN - White Plains, New York, USA
Distance from station: SSW 38mi, 62km
Updated: 3:56AM EST, December 02, 2021
Light rain, Mist, Overcast
Light rain, Mist, Overcast
 Wind from ESE
Wind: ESE 5 mph , 7 km/h
Temperature: 43°F , 6°C
Wind Chill: 40°F , 4°C
Dew Point: 39°F , 4°C
Humidity: 87%
Barometer: 29.93 inHg , 1013.5 hPa
Summary: Light rain, Mist
Clouds: Overcast
Visibility: 5 miles , 8 km
Cloud details: Mostly cloudy 2100 ft
Mostly cloudy 5500 ft
Overcast 7500 ft
2021/12/02 08:56 KHPN 020856Z 12004KT 5SM -RA BR BKN021 BKN055 OVC075 06/04 A2993 RMK AO2 SLP139 P0000 60001 T00560039 56036
KHFD - Hartford/Brainar, Connecticut, USA
Distance from station: ENE 41mi, 65km
Updated: 3:53AM EST, December 02, 2021
Light rain, Overcast
Light rain, Overcast
 Wind from calm
Wind: Calm
Temperature: 37°F , 3°C
Dew Point: 34°F , 1°C
Humidity: 87%
Barometer: 29.97 inHg , 1014.9 hPa
Summary: Light rain
Clouds: Overcast
Visibility: 8 miles , 13 km
Cloud details: Overcast 4100 ft
2021/12/02 08:53 KHFD 020853Z AUTO 00000KT 8SM -RA OVC041 03/01 A2997 RMK AO2 RAE0755B22 SLP150 P0001 60001 T00330011 58031